Rio Vista Municipal (O88)
Rio Vista, CA
Field Elevation: 22
Lat: 38°11.60N  Long: 121°42.22W
CTAF/Unicom Freq: 122.7250
   
     For Weather-by-Phone, call (707) 374-5396
Weather Advisories
2019-02-18   13:19 Z
Altimeter 30.15" Hg
Wind 300° @ 14 KT
Gusts 19 KT
Visibility 10 SM
Ceiling CLR
Temperature 4° C (39° F)
Dewpoint -2° C (28° F)
Relative Humidity 62%
Density Altitude --
Condensation Altitude 3,400 feet
Wind Chill: -1° C (30° F)
Wind and Runways
Indicated Runway = 33
Headwind = 12 kt
Crosswind = 7 kt
History
 
 
 
More Info
All DigiWx sites map
NOAA Forecast
 
Airport IQ 5010
(DUC) Stack Farm
(CA37) Dominican
 
about DigiWx
 
FAA Disclaimer: The data displayed is for advisory purposes only and is not to be used for flight planning or operations. For official data, please call (707) 374-5396 to hear the current automated AWOS voice message.
  METAR O88 181319Z AUTO 30014G19KT VIS 10 SM CLR 04/M02 A3015